Time;durP1;ratioP1;P1;durP2;ratioP2;P2;SDS_P1;SDS_P2;PMS_P1;PMS_P2;Temp;Humidity;BMP_temperature;BMP_pressure;BME280_temperature;BME280_humidity;BME280_pressure;Samples;Min_cycle;Max_cycle;Signal;HPM_P1;HPM_P2
2021/01/04 00:03:47;;;;;;;8.25;4.25;;;2.40;99.90;;;;;;6752855;87;20172;-76
2021/01/04 00:14:16;;;;;;;7.65;4.55;;;2.30;99.90;;;;;;6759598;87;20177;-75
2021/01/04 00:24:33;;;;;;;7.93;4.55;;;2.30;99.90;;;;;;6757731;87;20192;-76
2021/01/04 00:34:44;;;;;;;11.50;4.50;;;2.30;99.90;;;;;;6754077;87;20177;-76
2021/01/04 00:45:37;;;;;;;9.20;4.60;;;2.30;99.90;;;;;;6764524;87;20826;-74
2021/01/04 00:56:01;;;;;;;8.85;4.82;;;2.30;99.90;;;;;;6767955;87;20176;-75
2021/01/04 01:06:23;;;;;;;10.52;4.93;;;2.30;99.90;;;;;;6754074;88;20234;-77
2021/01/04 01:16:26;;;;;;;9.00;4.75;;;2.20;99.90;;;;;;6754445;87;20254;-77
2021/01/04 01:26:54;;;;;;;11.20;5.00;;;2.30;99.90;;;;;;6769748;87;20287;-77
2021/01/04 01:37:19;;;;;;;9.30;4.50;;;2.30;99.90;;;;;;6762650;87;20308;-77
2021/01/04 01:47:43;;;;;;;8.63;4.37;;;2.20;99.90;;;;;;6762920;87;20195;-77
2021/01/04 01:58:11;;;;;;;7.45;4.20;;;2.30;99.90;;;;;;6753503;88;20189;-77
2021/01/04 02:08:22;;;;;;;7.75;4.07;;;2.40;99.90;;;;;;6754778;87;20694;-77
2021/01/04 02:18:28;;;;;;;8.27;4.60;;;2.20;99.90;;;;;;6765622;87;20231;-77
2021/01/04 02:28:34;;;;;;;7.90;4.40;;;2.40;99.90;;;;;;6754397;87;20655;-76
2021/01/04 02:38:41;;;;;;;7.80;4.57;;;2.40;99.90;;;;;;6758225;87;20766;-76
2021/01/04 02:49:20;;;;;;;6.30;4.05;;;2.30;99.90;;;;;;6765818;87;20239;-77
2021/01/04 02:59:41;;;;;;;7.55;4.18;;;2.30;99.90;;;;;;6770308;87;20177;-74
2021/01/04 03:09:47;;;;;;;7.43;4.05;;;2.20;99.90;;;;;;6772353;87;20241;-78
2021/01/04 03:19:55;;;;;;;6.33;4.03;;;2.30;99.90;;;;;;6762249;87;20247;-75
2021/01/04 03:29:56;;;;;;;5.80;3.47;;;2.30;99.90;;;;;;6763012;87;20261;-77
2021/01/04 03:40:37;;;;;;;6.57;4.05;;;2.20;99.90;;;;;;6759055;77;20261;-80
2021/01/04 03:50:38;;;;;;;6.93;4.00;;;2.20;99.90;;;;;;6715079;88;20168;-80
2021/01/04 04:00:38;;;;;;;6.82;3.60;;;2.20;99.90;;;;;;6713102;88;20267;-83
2021/01/04 04:10:39;;;;;;;6.10;3.67;;;2.30;99.90;;;;;;6715417;88;20199;-81
2021/01/04 04:20:39;;;;;;;5.93;3.72;;;2.20;99.90;;;;;;6710668;88;20171;-81
2021/01/04 04:30:40;;;;;;;7.10;3.47;;;2.20;99.90;;;;;;6711253;88;20198;-80
2021/01/04 04:40:40;;;;;;;4.82;3.28;;;2.40;99.90;;;;;;6711966;88;20228;-82
2021/01/04 04:51:02;;;;;;;6.68;3.90;;;2.30;99.90;;;;;;6712006;88;20211;-81
2021/01/04 05:01:09;;;;;;;5.55;3.65;;;2.20;99.90;;;;;;6711955;88;20276;-82
2021/01/04 05:11:10;;;;;;;;;;;2.10;99.90;;;;;;6713922;88;20142;-82
2021/01/04 05:21:28;;;;;;;5.45;3.60;;;2.20;99.90;;;;;;6708900;88;20050;-81
2021/01/04 05:31:47;;;;;;;5.22;3.60;;;2.10;99.90;;;;;;6693090;89;20211;-81
2021/01/04 05:42:09;;;;;;;6.53;3.60;;;2.20;99.90;;;;;;6672590;89;20180;-81
2021/01/04 05:52:09;;;;;;;6.53;3.55;;;2.20;99.90;;;;;;6675328;89;20171;-81
2021/01/04 06:02:10;;;;;;;7.68;4.30;;;2.20;99.90;;;;;;6691110;89;20182;-82
2021/01/04 06:12:25;;;;;;;5.35;3.35;;;2.20;99.90;;;;;;6693977;89;20196;-81
2021/01/04 06:22:31;;;;;;;6.25;3.72;;;2.20;99.90;;;;;;6695075;89;20179;-80
2021/01/04 06:32:34;;;;;;;8.10;3.78;;;2.20;99.90;;;;;;6699432;89;20189;-81
2021/01/04 06:42:41;;;;;;;9.60;3.97;;;2.20;99.90;;;;;;6697317;89;20199;-79
2021/01/04 06:53:09;;;;;;;6.65;3.60;;;2.20;99.90;;;;;;6690818;89;20807;-81
2021/01/04 07:03:47;;;;;;;6.47;3.83;;;2.20;99.90;;;;;;6692656;89;20224;-79
2021/01/04 07:14:09;;;;;;;6.12;3.80;;;2.20;99.90;;;;;;6697061;89;20226;-80
2021/01/04 07:24:21;;;;;;;7.28;3.80;;;2.30;99.90;;;;;;6697699;89;20197;-82
2021/01/04 07:34:36;;;;;;;5.87;3.42;;;2.20;99.90;;;;;;6697337;89;20277;-79
2021/01/04 07:44:45;;;;;;;7.10;3.85;;;2.20;99.90;;;;;;6696047;89;20194;-82
2021/01/04 07:55:31;;;;;;;6.97;3.95;;;2.10;99.90;;;;;;6698209;88;20184;-79
2021/01/04 08:05:47;;;;;;;5.82;3.30;;;2.20;99.90;;;;;;6704541;88;21022;-81
2021/01/04 08:15:55;;;;;;;7.00;3.63;;;2.20;99.90;;;;;;6702700;88;20293;-76
2021/01/04 08:26:53;;;;;;;7.18;4.00;;;2.20;99.90;;;;;;6693640;88;20293;-76
2021/01/04 08:36:57;;;;;;;6.43;3.87;;;2.30;99.90;;;;;;6696251;88;20322;-75
2021/01/04 08:47:26;;;;;;;7.85;4.00;;;2.40;99.90;;;;;;6673739;88;20211;-77
2021/01/04 08:57:47;;;;;;;6.95;3.55;;;2.50;99.90;;;;;;6692621;88;20247;-76
2021/01/04 09:07:54;;;;;;;6.82;3.62;;;2.60;99.90;;;;;;6688962;88;20224;-76
2021/01/04 09:18:00;;;;;;;7.37;3.67;;;2.60;99.90;;;;;;6694487;88;20183;-75
2021/01/04 09:28:02;;;;;;;10.15;3.50;;;2.70;99.90;;;;;;6682617;88;20310;-76
2021/01/04 09:38:11;;;;;;;6.65;3.78;;;2.80;99.90;;;;;;6687527;88;20210;-75
2021/01/04 09:48:35;;;;;;;6.50;3.97;;;2.90;99.90;;;;;;6703927;77;20241;-77
2021/01/04 09:58:36;;;;;;;7.85;4.40;;;3.00;99.90;;;;;;6725842;88;20616;-75
2021/01/04 10:08:37;;;;;;;7.25;4.32;;;3.00;99.90;;;;;;6730485;88;20287;-75
2021/01/04 10:18:47;;;;;;;7.70;3.90;;;3.10;99.90;;;;;;6727689;88;20619;-76
2021/01/04 10:28:48;;;;;;;7.05;3.97;;;3.10;99.90;;;;;;6729275;88;20172;-76
2021/01/04 10:38:59;;;;;;;7.57;3.87;;;3.10;99.90;;;;;;6739897;88;20217;-75
2021/01/04 10:49:07;;;;;;;8.52;4.05;;;3.30;99.90;;;;;;6735644;88;20197;-76
2021/01/04 10:59:14;;;;;;;8.05;3.90;;;3.20;99.90;;;;;;6730326;88;20218;-76
2021/01/04 11:09:25;;;;;;;7.03;3.47;;;3.40;99.90;;;;;;6743369;88;20228;-75
2021/01/04 11:19:32;;;;;;;5.68;3.83;;;3.40;99.90;;;;;;6738967;88;20174;-76
2021/01/04 11:29:33;;;;;;;7.28;4.25;;;3.40;99.90;;;;;;6743575;88;20670;-75
2021/01/04 11:39:35;;;;;;;8.68;4.07;;;3.40;99.90;;;;;;6731928;88;20259;-74
2021/01/04 11:49:36;;;;;;;8.00;4.65;;;3.60;99.90;;;;;;6735990;88;20197;-75
2021/01/04 11:59:37;;;;;;;6.72;3.78;;;3.50;99.90;;;;;;6730782;88;20277;-75
2021/01/04 12:09:38;;;;;;;7.68;4.25;;;3.50;99.90;;;;;;6730597;88;20199;-76
2021/01/04 12:19:38;;;;;;;7.15;4.15;;;3.60;99.90;;;;;;6727609;88;20181;-75
2021/01/04 12:29:46;;;;;;;8.07;4.40;;;3.50;99.90;;;;;;6731364;88;20261;-75
2021/01/04 12:39:47;;;;;;;8.57;4.70;;;3.50;99.90;;;;;;6732246;88;20200;-75
2021/01/04 12:49:47;;;;;;;8.82;4.78;;;3.60;99.90;;;;;;6730718;88;20979;-76
2021/01/04 12:59:48;;;;;;;7.43;4.45;;;3.70;99.90;;;;;;6730026;88;20740;-76
2021/01/04 13:09:48;;;;;;;8.80;5.25;;;3.80;99.90;;;;;;6732098;88;20235;-75
2021/01/04 13:19:49;;;;;;;8.02;4.70;;;3.90;99.90;;;;;;6734102;88;20217;-75
2021/01/04 13:29:51;;;;;;;10.02;4.90;;;3.80;99.90;;;;;;6729139;88;20201;-75
2021/01/04 13:39:51;;;;;;;8.68;4.15;;;3.60;99.90;;;;;;6734082;88;20926;-75
2021/01/04 13:49:52;;;;;;;7.90;4.20;;;3.60;99.90;;;;;;6734877;88;20235;-76
2021/01/04 13:59:52;;;;;;;7.18;4.43;;;3.50;99.90;;;;;;6735299;88;20217;-75
2021/01/04 14:09:53;;;;;;;8.20;4.45;;;3.70;99.90;;;;;;6733091;88;20205;-74
2021/01/04 14:19:53;;;;;;;9.65;4.60;;;3.70;99.90;;;;;;6736265;88;20508;-75
2021/01/04 14:29:54;;;;;;;7.82;4.25;;;3.70;99.90;;;;;;6733687;88;20208;-75
2021/01/04 14:39:55;;;;;;;7.87;4.28;;;3.70;99.90;;;;;;6734004;88;20616;-75
2021/01/04 14:49:55;;;;;;;9.45;5.60;;;3.60;99.90;;;;;;6740278;88;20213;-76
2021/01/04 14:59:56;;;;;;;9.57;5.18;;;3.70;99.90;;;;;;6736385;88;20193;-75
2021/01/04 15:09:56;;;;;;;10.50;5.12;;;3.50;99.90;;;;;;6747472;88;20306;-76
2021/01/04 15:19:57;;;;;;;8.93;5.18;;;3.50;99.90;;;;;;6743781;88;20273;-75
2021/01/04 15:29:57;;;;;;;8.98;4.72;;;3.60;99.90;;;;;;6733951;88;20202;-75
2021/01/04 15:39:59;;;;;;;8.95;4.75;;;3.50;99.90;;;;;;6730441;88;20218;-75
2021/01/04 15:50:00;;;;;;;8.75;4.07;;;3.50;99.90;;;;;;6739113;88;20255;-76
2021/01/04 16:00:00;;;;;;;6.45;3.47;;;3.50;99.90;;;;;;6730833;88;20276;-76
2021/01/04 16:10:01;;;;;;;8.77;3.40;;;3.60;99.90;;;;;;6722392;88;20991;-77
2021/01/04 16:20:04;;;;;;;6.12;3.30;;;3.50;99.90;;;;;;6731312;88;20346;-76
2021/01/04 16:30:06;;;;;;;6.25;3.65;;;3.50;99.90;;;;;;6741401;88;20194;-77
2021/01/04 16:40:09;;;;;;;6.90;3.30;;;3.40;99.90;;;;;;6741557;88;20707;-77
2021/01/04 16:50:10;;;;;;;6.62;3.42;;;3.40;99.90;;;;;;6730561;88;20693;-75
2021/01/04 17:00:13;;;;;;;7.22;3.65;;;3.40;99.90;;;;;;6744291;88;20235;-76
2021/01/04 17:10:13;;;;;;;6.72;3.47;;;3.30;99.90;;;;;;6736832;88;20297;-76
2021/01/04 17:20:14;;;;;;;7.87;3.97;;;3.30;99.90;;;;;;6733985;88;20200;-77
2021/01/04 17:30:15;;;;;;;8.77;4.70;;;3.30;99.90;;;;;;6739485;88;20203;-76
2021/01/04 17:40:17;;;;;;;6.97;3.62;;;3.40;99.90;;;;;;6740358;88;20206;-76
2021/01/04 17:50:17;;;;;;;5.75;3.50;;;3.50;99.90;;;;;;6742677;88;20192;-78
2021/01/04 18:00:18;;;;;;;7.00;3.78;;;3.40;99.90;;;;;;6734916;88;20185;-75
2021/01/04 18:10:19;;;;;;;7.87;4.25;;;3.40;99.90;;;;;;6732760;88;20242;-75
2021/01/04 18:20:20;;;;;;;8.27;4.55;;;3.30;99.90;;;;;;6731574;88;20177;-74
2021/01/04 18:30:21;;;;;;;8.30;4.45;;;3.30;99.90;;;;;;6732455;88;20186;-75
2021/01/04 18:40:23;;;;;;;7.60;4.40;;;3.30;99.90;;;;;;6735251;88;20223;-74
2021/01/04 18:50:24;;;;;;;9.13;4.53;;;3.40;99.90;;;;;;6737749;88;20216;-77
2021/01/04 19:00:26;;;;;;;8.32;4.93;;;3.30;99.90;;;;;;6728818;88;20182;-75
2021/01/04 19:10:27;;;;;;;9.00;5.07;;;3.30;99.90;;;;;;6734917;88;20678;-76
2021/01/04 19:20:28;;;;;;;9.50;4.95;;;3.20;99.90;;;;;;6741149;88;20231;-77
2021/01/04 19:30:28;;;;;;;9.77;5.07;;;3.10;99.90;;;;;;6741391;88;20174;-76
2021/01/04 19:40:29;;;;;;;10.27;4.75;;;3.50;99.90;;;;;;6739597;88;20313;-78
2021/01/04 19:50:29;;;;;;;8.75;5.05;;;3.30;99.90;;;;;;6744010;88;20173;-75
2021/01/04 20:00:30;;;;;;;9.07;5.45;;;3.50;99.90;;;;;;6739313;88;20207;-77
2021/01/04 20:10:30;;;;;;;11.10;5.62;;;3.40;99.90;;;;;;6740179;88;20206;-77
2021/01/04 20:20:31;;;;;;;10.63;5.40;;;3.30;99.90;;;;;;6739559;88;20251;-77
2021/01/04 20:30:32;;;;;;;9.73;5.43;;;3.20;99.90;;;;;;6738469;88;20880;-76
2021/01/04 20:40:33;;;;;;;9.77;5.80;;;3.20;99.90;;;;;;6739208;88;20233;-77
2021/01/04 20:50:33;;;;;;;11.25;5.90;;;3.20;99.90;;;;;;6741068;88;20335;-78
2021/01/04 21:00:34;;;;;;;11.55;5.68;;;3.10;99.90;;;;;;6742046;88;20692;-77
2021/01/04 21:10:34;;;;;;;9.43;5.37;;;3.20;99.90;;;;;;6731814;88;20756;-75
2021/01/04 21:20:35;;;;;;;12.77;5.97;;;3.10;99.90;;;;;;6730513;88;20195;-75
2021/01/04 21:30:36;;;;;;;9.75;5.43;;;3.10;99.90;;;;;;6732513;88;20584;-75
2021/01/04 21:40:37;;;;;;;9.95;5.65;;;3.20;99.90;;;;;;6733100;88;20271;-76
2021/01/04 21:50:38;;;;;;;12.40;6.05;;;3.10;99.90;;;;;;6734657;88;20346;-76
2021/01/04 22:00:39;;;;;;;9.52;5.45;;;3.10;99.90;;;;;;6738077;88;20201;-76
2021/01/04 22:10:39;;;;;;;9.98;5.97;;;3.10;99.90;;;;;;6742924;88;20227;-76
2021/01/04 22:20:40;;;;;;;10.85;5.57;;;3.10;99.90;;;;;;6742178;88;20189;-75
2021/01/04 22:30:40;;;;;;;10.52;6.18;;;3.10;99.90;;;;;;6739897;88;20197;-76
2021/01/04 22:40:41;;;;;;;10.57;5.57;;;3.00;99.90;;;;;;6746292;77;20178;-76
2021/01/04 22:50:43;;;;;;;11.18;6.20;;;3.00;99.90;;;;;;6737181;88;20609;-76
2021/01/04 23:00:43;;;;;;;12.20;6.10;;;3.10;99.90;;;;;;6734478;88;20498;-75
2021/01/04 23:10:45;;;;;;;10.55;5.70;;;3.00;99.90;;;;;;6745849;88;20222;-76
2021/01/04 23:20:47;;;;;;;13.25;6.30;;;2.90;99.90;;;;;;6747056;88;20178;-76
2021/01/04 23:30:48;;;;;;;11.68;6.25;;;2.90;99.90;;;;;;6752958;88;20566;-77
2021/01/04 23:40:49;;;;;;;13.15;6.75;;;2.90;99.90;;;;;;6758111;88;20213;-79
2021/01/04 23:50:50;;;;;;;11.80;5.93;;;2.90;99.90;;;;;;6752079;88;20180;-77
